sensor_id;sensor_type;location;lat;lon;timestamp;pressure;altitude;pressure_sealevel;temperature;humidity
12203;BME280;6164;42.178;24.622;2023-05-10T00:02:23;100099.25;;;11.73;100.00
12203;BME280;6164;42.178;24.622;2023-05-10T00:04:50;100099.44;;;11.72;100.00
12203;BME280;6164;42.178;24.622;2023-05-10T00:07:17;100092.66;;;11.69;100.00
12203;BME280;6164;42.178;24.622;2023-05-10T00:09:44;100082.72;;;11.63;100.00
12203;BME280;6164;42.178;24.622;2023-05-10T00:12:11;100087.03;;;11.64;100.00
12203;BME280;6164;42.178;24.622;2023-05-10T00:14:39;100093.47;;;11.70;100.00
12203;BME280;6164;42.178;24.622;2023-05-10T00:17:05;100086.03;;;11.65;100.00
12203;BME280;6164;42.178;24.622;2023-05-10T00:19:32;100081.03;;;11.62;100.00
12203;BME280;6164;42.178;24.622;2023-05-10T00:21:59;100056.06;;;11.49;100.00
12203;BME280;6164;42.178;24.622;2023-05-10T00:24:25;100083.56;;;11.64;100.00
12203;BME280;6164;42.178;24.622;2023-05-10T00:26:52;100087.03;;;11.64;100.00
12203;BME280;6164;42.178;24.622;2023-05-10T00:29:19;100084.06;;;11.67;100.00
12203;BME280;6164;42.178;24.622;2023-05-10T00:31:47;100088.34;;;11.68;100.00
12203;BME280;6164;42.178;24.622;2023-05-10T00:34:14;100092.50;;;11.71;100.00
12203;BME280;6164;42.178;24.622;2023-05-10T00:36:41;100088.16;;;11.70;100.00
12203;BME280;6164;42.178;24.622;2023-05-10T00:39:07;100092.31;;;11.64;100.00
12203;BME280;6164;42.178;24.622;2023-05-10T00:41:34;100081.75;;;11.64;100.00
12203;BME280;6164;42.178;24.622;2023-05-10T00:44:01;100082.84;;;11.62;100.00
12203;BME280;6164;42.178;24.622;2023-05-10T00:46:28;100085.19;;;11.65;100.00
12203;BME280;6164;42.178;24.622;2023-05-10T00:48:56;100089.31;;;11.59;100.00
12203;BME280;6164;42.178;24.622;2023-05-10T00:51:23;100091.47;;;11.64;100.00
12203;BME280;6164;42.178;24.622;2023-05-10T00:53:51;100090.94;;;11.60;100.00
12203;BME280;6164;42.178;24.622;2023-05-10T00:56:18;100090.09;;;11.60;100.00
12203;BME280;6164;42.178;24.622;2023-05-10T00:58:45;100088.97;;;11.62;100.00
12203;BME280;6164;42.178;24.622;2023-05-10T01:01:12;100095.94;;;11.63;100.00
12203;BME280;6164;42.178;24.622;2023-05-10T01:03:40;100084.00;;;11.59;100.00
12203;BME280;6164;42.178;24.622;2023-05-10T01:06:08;100088.13;;;11.62;100.00
12203;BME280;6164;42.178;24.622;2023-05-10T01:08:36;100086.66;;;11.59;100.00
12203;BME280;6164;42.178;24.622;2023-05-10T01:11:03;100085.66;;;11.60;100.00
12203;BME280;6164;42.178;24.622;2023-05-10T01:13:32;100088.28;;;11.60;100.00
12203;BME280;6164;42.178;24.622;2023-05-10T01:16:00;100067.13;;;11.44;100.00
12203;BME280;6164;42.178;24.622;2023-05-10T01:18:29;100088.13;;;11.54;100.00
12203;BME280;6164;42.178;24.622;2023-05-10T01:21:06;100089.75;;;11.55;100.00
12203;BME280;6164;42.178;24.622;2023-05-10T01:24:02;100100.69;;;11.60;100.00
12203;BME280;6164;42.178;24.622;2023-05-10T01:26:58;100114.06;;;11.58;100.00
12203;BME280;6164;42.178;24.622;2023-05-10T01:30:00;100109.78;;;11.49;100.00
12203;BME280;6164;42.178;24.622;2023-05-10T01:32:35;100104.66;;;11.48;100.00
12203;BME280;6164;42.178;24.622;2023-05-10T01:35:12;100084.44;;;11.39;100.00
12203;BME280;6164;42.178;24.622;2023-05-10T01:37:46;100093.56;;;11.44;100.00
12203;BME280;6164;42.178;24.622;2023-05-10T01:40:19;100101.16;;;11.47;100.00
12203;BME280;6164;42.178;24.622;2023-05-10T01:42:51;100095.88;;;11.47;100.00
12203;BME280;6164;42.178;24.622;2023-05-10T01:45:26;100092.41;;;11.47;100.00
12203;BME280;6164;42.178;24.622;2023-05-10T01:48:03;100089.91;;;11.45;100.00
12203;BME280;6164;42.178;24.622;2023-05-10T01:50:32;100089.25;;;11.43;100.00
12203;BME280;6164;42.178;24.622;2023-05-10T01:53:01;100097.16;;;11.43;100.00
12203;BME280;6164;42.178;24.622;2023-05-10T01:55:33;100108.06;;;11.40;100.00
12203;BME280;6164;42.178;24.622;2023-05-10T01:58:04;100080.59;;;11.25;100.00
12203;BME280;6164;42.178;24.622;2023-05-10T02:00:33;100103.44;;;11.34;100.00
12203;BME280;6164;42.178;24.622;2023-05-10T02:03:05;100108.56;;;11.36;100.00
12203;BME280;6164;42.178;24.622;2023-05-10T02:05:36;100108.06;;;11.32;100.00
12203;BME280;6164;42.178;24.622;2023-05-10T02:08:06;100101.75;;;11.25;100.00
12203;BME280;6164;42.178;24.622;2023-05-10T02:10:34;100115.03;;;11.33;100.00
12203;BME280;6164;42.178;24.622;2023-05-10T02:13:02;100115.66;;;11.35;100.00
12203;BME280;6164;42.178;24.622;2023-05-10T02:15:29;100097.28;;;11.26;100.00
12203;BME280;6164;42.178;24.622;2023-05-10T02:17:58;100103.44;;;11.34;100.00
12203;BME280;6164;42.178;24.622;2023-05-10T02:20:29;100106.09;;;11.34;100.00
12203;BME280;6164;42.178;24.622;2023-05-10T02:22:58;100114.00;;;11.34;100.00
12203;BME280;6164;42.178;24.622;2023-05-10T02:25:26;100119.81;;;11.38;100.00
12203;BME280;6164;42.178;24.622;2023-05-10T02:27:55;100122.63;;;11.36;100.00
12203;BME280;6164;42.178;24.622;2023-05-10T02:30:23;100122.94;;;11.33;100.00
12203;BME280;6164;42.178;24.622;2023-05-10T02:32:51;100128.06;;;11.35;100.00
12203;BME280;6164;42.178;24.622;2023-05-10T02:35:19;100125.44;;;11.35;100.00
12203;BME280;6164;42.178;24.622;2023-05-10T02:37:47;100117.78;;;11.32;100.00
12203;BME280;6164;42.178;24.622;2023-05-10T02:40:15;100119.66;;;11.39;100.00
12203;BME280;6164;42.178;24.622;2023-05-10T02:42:44;100119.81;;;11.38;100.00
12203;BME280;6164;42.178;24.622;2023-05-10T02:45:17;100110.38;;;11.35;100.00
12203;BME280;6164;42.178;24.622;2023-05-10T02:47:44;100107.09;;;11.33;100.00
12203;BME280;6164;42.178;24.622;2023-05-10T02:50:11;100109.50;;;11.27;100.00
12203;BME280;6164;42.178;24.622;2023-05-10T02:52:40;100110.03;;;11.30;100.00
12203;BME280;6164;42.178;24.622;2023-05-10T02:55:12;100112.81;;;11.29;100.00
12203;BME280;6164;42.178;24.622;2023-05-10T02:57:48;100117.16;;;11.30;100.00
12203;BME280;6164;42.178;24.622;2023-05-10T03:00:17;100108.03;;;11.24;100.00
12203;BME280;6164;42.178;24.622;2023-05-10T03:02:44;100109.19;;;11.22;100.00
12203;BME280;6164;42.178;24.622;2023-05-10T03:05:10;100103.22;;;11.20;100.00
12203;BME280;6164;42.178;24.622;2023-05-10T03:07:37;100063.81;;;10.93;100.00
12203;BME280;6164;42.178;24.622;2023-05-10T03:10:05;100108.69;;;11.18;100.00
12203;BME280;6164;42.178;24.622;2023-05-10T03:12:46;100097.53;;;10.99;100.00
12203;BME280;6164;42.178;24.622;2023-05-10T03:15:19;100120.03;;;11.11;100.00
12203;BME280;6164;42.178;24.622;2023-05-10T03:18:00;100115.75;;;11.10;100.00
12203;BME280;6164;42.178;24.622;2023-05-10T03:20:34;100111.41;;;11.01;100.00
12203;BME280;6164;42.178;24.622;2023-05-10T03:23:04;100116.22;;;11.05;100.00
12203;BME280;6164;42.178;24.622;2023-05-10T03:25:34;100108.75;;;11.01;100.00
12203;BME280;6164;42.178;24.622;2023-05-10T03:28:03;100117.69;;;11.00;100.00
12203;BME280;6164;42.178;24.622;2023-05-10T03:30:31;100119.50;;;11.07;100.00
12203;BME280;6164;42.178;24.622;2023-05-10T03:33:04;100126.50;;;11.16;100.00
12203;BME280;6164;42.178;24.622;2023-05-10T03:35:31;100125.19;;;11.20;100.00
12203;BME280;6164;42.178;24.622;2023-05-10T03:37:57;100129.19;;;11.24;100.00
12203;BME280;6164;42.178;24.622;2023-05-10T03:40:24;100118.59;;;11.24;100.00
12203;BME280;6164;42.178;24.622;2023-05-10T03:42:51;100132.00;;;11.31;100.00
12203;BME280;6164;42.178;24.622;2023-05-10T03:45:19;100104.69;;;11.14;100.00
12203;BME280;6164;42.178;24.622;2023-05-10T03:47:46;100136.28;;;11.32;100.00
12203;BME280;6164;42.178;24.622;2023-05-10T03:50:13;100138.75;;;11.25;100.00
12203;BME280;6164;42.178;24.622;2023-05-10T03:52:39;100133.59;;;11.16;100.00
12203;BME280;6164;42.178;24.622;2023-05-10T03:55:07;100147.69;;;11.24;100.00
12203;BME280;6164;42.178;24.622;2023-05-10T03:57:34;100153.47;;;11.28;100.00
12203;BME280;6164;42.178;24.622;2023-05-10T04:00:01;100150.34;;;11.32;100.00
12203;BME280;6164;42.178;24.622;2023-05-10T04:02:29;100152.50;;;11.37;100.00
12203;BME280;6164;42.178;24.622;2023-05-10T04:04:56;100155.66;;;11.40;100.00
12203;BME280;6164;42.178;24.622;2023-05-10T04:07:23;100157.53;;;11.48;100.00
12203;BME280;6164;42.178;24.622;2023-05-10T04:09:49;100151.75;;;11.52;100.00
12203;BME280;6164;42.178;24.622;2023-05-10T04:12:16;100160.03;;;11.57;100.00
12203;BME280;6164;42.178;24.622;2023-05-10T04:14:43;100137.19;;;11.48;100.00
12203;BME280;6164;42.178;24.622;2023-05-10T04:17:09;100161.22;;;11.63;100.00
12203;BME280;6164;42.178;24.622;2023-05-10T04:19:37;100155.47;;;11.67;100.00
12203;BME280;6164;42.178;24.622;2023-05-10T04:22:05;100155.09;;;11.62;100.00
12203;BME280;6164;42.178;24.622;2023-05-10T04:24:31;100157.09;;;11.68;100.00
12203;BME280;6164;42.178;24.622;2023-05-10T04:26:58;100159.25;;;11.73;100.00
12203;BME280;6164;42.178;24.622;2023-05-10T04:29:25;100164.06;;;11.69;100.00
12203;BME280;6164;42.178;24.622;2023-05-10T04:31:51;100163.22;;;11.69;100.00
12203;BME280;6164;42.178;24.622;2023-05-10T04:34:20;100150.50;;;11.72;100.00
12203;BME280;6164;42.178;24.622;2023-05-10T04:36:51;100153.84;;;11.82;100.00
12203;BME280;6164;42.178;24.622;2023-05-10T04:39:17;100163.94;;;11.87;100.00
12203;BME280;6164;42.178;24.622;2023-05-10T04:41:44;100158.31;;;11.82;100.00
12203;BME280;6164;42.178;24.622;2023-05-10T04:44:11;100160.59;;;11.77;100.00
12203;BME280;6164;42.178;24.622;2023-05-10T04:46:37;100159.41;;;11.71;100.00
12203;BME280;6164;42.178;24.622;2023-05-10T04:49:04;100156.28;;;11.68;100.00
12203;BME280;6164;42.178;24.622;2023-05-10T04:51:31;100159.75;;;11.68;100.00
12203;BME280;6164;42.178;24.622;2023-05-10T04:53:59;100165.19;;;11.67;100.00
12203;BME280;6164;42.178;24.622;2023-05-10T04:56:26;100158.69;;;11.61;100.00
12203;BME280;6164;42.178;24.622;2023-05-10T04:58:52;100160.06;;;11.65;100.00
12203;BME280;6164;42.178;24.622;2023-05-10T05:01:19;100158.28;;;11.66;100.00
12203;BME280;6164;42.178;24.622;2023-05-10T05:03:46;100151.59;;;11.62;100.00
12203;BME280;6164;42.178;24.622;2023-05-10T05:06:13;100165.88;;;11.77;100.00
12203;BME280;6164;42.178;24.622;2023-05-10T05:08:39;100155.66;;;11.82;100.00
12203;BME280;6164;42.178;24.622;2023-05-10T05:11:07;100166.25;;;11.98;100.00
12203;BME280;6164;42.178;24.622;2023-05-10T05:13:34;100159.84;;;12.09;100.00
12203;BME280;6164;42.178;24.622;2023-05-10T05:16:02;100154.53;;;12.25;100.00
12203;BME280;6164;42.178;24.622;2023-05-10T05:18:28;100155.53;;;12.32;100.00
12203;BME280;6164;42.178;24.622;2023-05-10T05:20:55;100150.41;;;12.38;100.00
12203;BME280;6164;42.178;24.622;2023-05-10T05:23:22;100147.59;;;12.40;100.00
12203;BME280;6164;42.178;24.622;2023-05-10T05:25:51;100146.09;;;12.29;100.00
12203;BME280;6164;42.178;24.622;2023-05-10T05:28:19;100136.69;;;12.19;100.00
12203;BME280;6164;42.178;24.622;2023-05-10T05:30:46;100141.81;;;12.12;100.00
12203;BME280;6164;42.178;24.622;2023-05-10T05:33:13;100150.41;;;12.22;100.00
12203;BME280;6164;42.178;24.622;2023-05-10T05:35:40;100144.44;;;12.28;100.00
12203;BME280;6164;42.178;24.622;2023-05-10T05:38:08;100156.03;;;12.35;100.00
12203;BME280;6164;42.178;24.622;2023-05-10T05:40:35;100133.88;;;12.28;100.00
12203;BME280;6164;42.178;24.622;2023-05-10T05:43:02;100157.03;;;12.50;100.00
12203;BME280;6164;42.178;24.622;2023-05-10T05:45:30;100165.44;;;12.54;100.00
12203;BME280;6164;42.178;24.622;2023-05-10T05:47:56;100160.16;;;12.62;100.00
12203;BME280;6164;42.178;24.622;2023-05-10T05:50:23;100163.59;;;12.70;100.00
12203;BME280;6164;42.178;24.622;2023-05-10T05:52:50;100157.31;;;12.71;100.00
12203;BME280;6164;42.178;24.622;2023-05-10T05:55:17;100162.13;;;12.76;100.00
12203;BME280;6164;42.178;24.622;2023-05-10T05:57:43;100164.44;;;12.79;100.00
12203;BME280;6164;42.178;24.622;2023-05-10T06:00:11;100164.22;;;12.96;100.00
12203;BME280;6164;42.178;24.622;2023-05-10T06:02:39;100171.34;;;13.12;100.00
12203;BME280;6164;42.178;24.622;2023-05-10T06:05:07;100177.28;;;13.22;100.00
12203;BME280;6164;42.178;24.622;2023-05-10T06:07:34;100165.63;;;13.31;100.00
12203;BME280;6164;42.178;24.622;2023-05-10T06:10:04;100160.63;;;13.36;100.00
12203;BME280;6164;42.178;24.622;2023-05-10T06:12:31;100166.09;;;13.35;100.00
12203;BME280;6164;42.178;24.622;2023-05-10T06:14:58;100164.44;;;13.42;100.00
12203;BME280;6164;42.178;24.622;2023-05-10T06:17:25;100169.69;;;13.50;100.00
12203;BME280;6164;42.178;24.622;2023-05-10T06:19:53;100165.88;;;13.52;100.00
12203;BME280;6164;42.178;24.622;2023-05-10T06:22:19;100172.97;;;13.60;100.00
12203;BME280;6164;42.178;24.622;2023-05-10T06:24:48;100184.72;;;13.65;100.00
12203;BME280;6164;42.178;24.622;2023-05-10T06:27:15;100184.22;;;13.62;100.00
12203;BME280;6164;42.178;24.622;2023-05-10T06:29:41;100190.69;;;13.67;100.00
12203;BME280;6164;42.178;24.622;2023-05-10T06:32:08;100188.03;;;13.59;100.00
12203;BME280;6164;42.178;24.622;2023-05-10T06:34:35;100181.91;;;13.67;100.00
12203;BME280;6164;42.178;24.622;2023-05-10T06:37:03;100179.72;;;13.70;100.00
12203;BME280;6164;42.178;24.622;2023-05-10T06:39:29;100185.03;;;13.70;100.00
12203;BME280;6164;42.178;24.622;2023-05-10T06:41:56;100180.03;;;13.75;100.00
12203;BME280;6164;42.178;24.622;2023-05-10T06:44:23;100179.81;;;13.85;100.00
12203;BME280;6164;42.178;24.622;2023-05-10T06:46:50;100189.41;;;13.86;100.00
12203;BME280;6164;42.178;24.622;2023-05-10T06:49:17;100188.28;;;13.80;100.00
12203;BME280;6164;42.178;24.622;2023-05-10T06:51:44;100186.63;;;13.79;100.00
12203;BME280;6164;42.178;24.622;2023-05-10T06:54:12;100184.31;;;13.76;100.00
12203;BME280;6164;42.178;24.622;2023-05-10T06:56:39;100176.97;;;13.86;100.00
12203;BME280;6164;42.178;24.622;2023-05-10T06:59:06;100176.78;;;13.88;100.00
12203;BME280;6164;42.178;24.622;2023-05-10T07:01:33;100179.28;;;13.89;100.00
12203;BME280;6164;42.178;24.622;2023-05-10T07:03:59;100183.72;;;13.97;100.00
12203;BME280;6164;42.178;24.622;2023-05-10T07:06:26;100178.72;;;14.02;100.00
12203;BME280;6164;42.178;24.622;2023-05-10T07:08:53;100171.50;;;14.10;100.00
12203;BME280;6164;42.178;24.622;2023-05-10T07:11:21;100174.44;;;14.15;96.73
12203;BME280;6164;42.178;24.622;2023-05-10T07:13:47;100179.03;;;14.29;97.39
12203;BME280;6164;42.178;24.622;2023-05-10T07:16:14;100170.72;;;14.32;98.83
12203;BME280;6164;42.178;24.622;2023-05-10T07:18:41;100163.56;;;14.33;96.45
12203;BME280;6164;42.178;24.622;2023-05-10T07:21:08;100175.41;;;14.45;97.51
12203;BME280;6164;42.178;24.622;2023-05-10T07:23:35;100178.72;;;14.47;97.60
12203;BME280;6164;42.178;24.622;2023-05-10T07:26:01;100176.16;;;14.53;98.08
12203;BME280;6164;42.178;24.622;2023-05-10T07:28:29;100177.75;;;14.63;96.14
12203;BME280;6164;42.178;24.622;2023-05-10T07:30:56;100181.50;;;14.68;96.04
12203;BME280;6164;42.178;24.622;2023-05-10T07:33:23;100183.09;;;14.77;96.23
12203;BME280;6164;42.178;24.622;2023-05-10T07:35:53;100183.75;;;14.79;94.23
12203;BME280;6164;42.178;24.622;2023-05-10T07:38:19;100187.88;;;14.82;92.83
12203;BME280;6164;42.178;24.622;2023-05-10T07:40:46;100183.47;;;14.89;94.00
12203;BME280;6164;42.178;24.622;2023-05-10T07:43:13;100191.09;;;14.92;90.74
12203;BME280;6164;42.178;24.622;2023-05-10T07:45:41;100196.50;;;14.98;90.94
12203;BME280;6164;42.178;24.622;2023-05-10T07:48:08;100194.69;;;14.99;90.05
12203;BME280;6164;42.178;24.622;2023-05-10T07:50:34;100193.47;;;15.01;89.10
12203;BME280;6164;42.178;24.622;2023-05-10T07:53:01;100194.88;;;15.12;90.11
12203;BME280;6164;42.178;24.622;2023-05-10T07:55:28;100206.22;;;15.06;88.31
12203;BME280;6164;42.178;24.622;2023-05-10T07:57:54;100208.97;;;14.98;88.02
12203;BME280;6164;42.178;24.622;2023-05-10T08:00:21;100204.66;;;14.97;88.44
12203;BME280;6164;42.178;24.622;2023-05-10T08:02:49;100212.47;;;14.98;87.49
12203;BME280;6164;42.178;24.622;2023-05-10T08:05:16;100214.84;;;15.08;86.32
12203;BME280;6164;42.178;24.622;2023-05-10T08:07:43;100208.53;;;15.09;85.09
12203;BME280;6164;42.178;24.622;2023-05-10T08:10:10;100189.28;;;15.07;85.85
12203;BME280;6164;42.178;24.622;2023-05-10T08:12:37;100215.59;;;15.16;85.47
12203;BME280;6164;42.178;24.622;2023-05-10T08:15:05;100212.38;;;15.21;86.51
12203;BME280;6164;42.178;24.622;2023-05-10T08:17:32;100192.41;;;15.10;84.44
12203;BME280;6164;42.178;24.622;2023-05-10T08:20:00;100218.72;;;15.20;83.34
12203;BME280;6164;42.178;24.622;2023-05-10T08:22:27;100206.16;;;15.14;84.77
12203;BME280;6164;42.178;24.622;2023-05-10T08:24:54;100223.56;;;15.16;85.22
12203;BME280;6164;42.178;24.622;2023-05-10T08:27:21;100229.00;;;15.23;82.58
12203;BME280;6164;42.178;24.622;2023-05-10T08:29:47;100221.28;;;15.28;82.39
12203;BME280;6164;42.178;24.622;2023-05-10T08:32:14;100239.63;;;15.37;81.94
12203;BME280;6164;42.178;24.622;2023-05-10T08:34:41;100223.78;;;15.44;81.68
12203;BME280;6164;42.178;24.622;2023-05-10T08:37:09;100225.19;;;15.54;81.62
12203;BME280;6164;42.178;24.622;2023-05-10T08:39:38;100211.69;;;15.56;79.96
12203;BME280;6164;42.178;24.622;2023-05-10T08:42:05;100209.94;;;15.63;78.77
12203;BME280;6164;42.178;24.622;2023-05-10T08:44:34;100219.94;;;15.61;80.25
12203;BME280;6164;42.178;24.622;2023-05-10T08:47:04;100220.84;;;15.68;78.42
12203;BME280;6164;42.178;24.622;2023-05-10T08:49:32;100212.31;;;15.72;78.15
12203;BME280;6164;42.178;24.622;2023-05-10T08:52:02;100216.22;;;15.76;78.96
12203;BME280;6164;42.178;24.622;2023-05-10T08:54:31;100222.53;;;15.90;78.70
12203;BME280;6164;42.178;24.622;2023-05-10T08:56:59;100218.69;;;15.93;77.17
12203;BME280;6164;42.178;24.622;2023-05-10T08:59:26;100220.72;;;15.91;75.62
12203;BME280;6164;42.178;24.622;2023-05-10T09:01:53;100219.22;;;15.88;76.26
12203;BME280;6164;42.178;24.622;2023-05-10T09:04:22;100185.50;;;15.74;76.38
12203;BME280;6164;42.178;24.622;2023-05-10T09:06:49;100212.47;;;15.86;76.86
12203;BME280;6164;42.178;24.622;2023-05-10T09:09:16;100193.44;;;15.89;76.44
12203;BME280;6164;42.178;24.622;2023-05-10T09:11:45;100214.69;;;16.03;75.36
12203;BME280;6164;42.178;24.622;2023-05-10T09:14:12;100211.56;;;16.14;75.39
12203;BME280;6164;42.178;24.622;2023-05-10T09:16:39;100209.03;;;16.27;75.85
12203;BME280;6164;42.178;24.622;2023-05-10T09:19:06;100193.75;;;16.36;76.06
12203;BME280;6164;42.178;24.622;2023-05-10T09:21:35;100200.91;;;16.35;73.20
12203;BME280;6164;42.178;24.622;2023-05-10T09:24:04;100193.44;;;16.45;73.67
12203;BME280;6164;42.178;24.622;2023-05-10T09:26:31;100192.88;;;16.50;73.03
12203;BME280;6164;42.178;24.622;2023-05-10T09:28:59;100193.50;;;16.52;72.22
12203;BME280;6164;42.178;24.622;2023-05-10T09:31:43;100192.69;;;16.51;70.70
12203;BME280;6164;42.178;24.622;2023-05-10T09:34:10;100187.53;;;16.50;71.95
12203;BME280;6164;42.178;24.622;2023-05-10T09:36:50;100180.47;;;16.42;72.59
12203;BME280;6164;42.178;24.622;2023-05-10T09:39:17;100184.78;;;16.43;71.77
12203;BME280;6164;42.178;24.622;2023-05-10T09:41:44;100163.34;;;16.51;72.01
12203;BME280;6164;42.178;24.622;2023-05-10T09:44:16;100175.06;;;16.78;72.86
12203;BME280;6164;42.178;24.622;2023-05-10T09:46:49;100182.84;;;17.07;71.23
12203;BME280;6164;42.178;24.622;2023-05-10T09:49:16;100180.22;;;17.13;69.75
12203;BME280;6164;42.178;24.622;2023-05-10T09:51:42;100194.66;;;17.26;67.02
12203;BME280;6164;42.178;24.622;2023-05-10T09:54:10;100145.53;;;17.13;67.63
12203;BME280;6164;42.178;24.622;2023-05-10T09:56:38;100179.16;;;17.42;67.19
12203;BME280;6164;42.178;24.622;2023-05-10T09:59:06;100183.16;;;17.53;65.92
12203;BME280;6164;42.178;24.622;2023-05-10T10:01:34;100142.28;;;17.52;67.03
12203;BME280;6164;42.178;24.622;2023-05-10T10:04:03;100164.31;;;17.67;66.73
12203;BME280;6164;42.178;24.622;2023-05-10T10:06:35;100163.25;;;17.62;65.46
12203;BME280;6164;42.178;24.622;2023-05-10T10:09:04;100174.56;;;17.64;64.25
12203;BME280;6164;42.178;24.622;2023-05-10T10:11:31;100168.00;;;17.73;64.94
12203;BME280;6164;42.178;24.622;2023-05-10T10:13:58;100161.38;;;17.56;64.35
12203;BME280;6164;42.178;24.622;2023-05-10T10:16:25;100152.56;;;17.62;64.45
12203;BME280;6164;42.178;24.622;2023-05-10T10:18:54;100151.00;;;17.87;65.32
12203;BME280;6164;42.178;24.622;2023-05-10T10:21:22;100163.59;;;18.06;65.25
12203;BME280;6164;42.178;24.622;2023-05-10T10:23:49;100178.41;;;18.08;61.32
12203;BME280;6164;42.178;24.622;2023-05-10T10:26:17;100191.16;;;18.13;59.25
12203;BME280;6164;42.178;24.622;2023-05-10T10:28:49;100187.22;;;18.15;59.50
12203;BME280;6164;42.178;24.622;2023-05-10T10:31:23;100167.31;;;18.11;60.56
12203;BME280;6164;42.178;24.622;2023-05-10T10:34:00;100162.59;;;18.13;61.12
12203;BME280;6164;42.178;24.622;2023-05-10T10:36:30;100163.81;;;18.30;60.70
12203;BME280;6164;42.178;24.622;2023-05-10T10:38:59;100155.66;;;18.52;61.18
12203;BME280;6164;42.178;24.622;2023-05-10T10:41:31;100144.34;;;18.63;61.53
12203;BME280;6164;42.178;24.622;2023-05-10T10:44:34;100167.56;;;18.82;60.15
12203;BME280;6164;42.178;24.622;2023-05-10T10:47:06;100162.41;;;18.87;59.61
12203;BME280;6164;42.178;24.622;2023-05-10T10:49:48;100170.44;;;18.93;58.36
12203;BME280;6164;42.178;24.622;2023-05-10T10:52:23;100171.03;;;19.08;58.16
12203;BME280;6164;42.178;24.622;2023-05-10T10:54:52;100149.78;;;19.20;59.27
12203;BME280;6164;42.178;24.622;2023-05-10T10:57:22;100158.84;;;19.25;58.91
12203;BME280;6164;42.178;24.622;2023-05-10T10:59:49;100168.94;;;19.23;56.69
12203;BME280;6164;42.178;24.622;2023-05-10T11:02:42;100145.28;;;19.20;57.02
12203;BME280;6164;42.178;24.622;2023-05-10T11:05:35;100179.28;;;19.07;55.99
12203;BME280;6164;42.178;24.622;2023-05-10T11:08:09;100180.50;;;18.98;55.23
12203;BME280;6164;42.178;24.622;2023-05-10T11:10:36;100174.78;;;18.94;56.24
12203;BME280;6164;42.178;24.622;2023-05-10T11:13:04;100163.06;;;18.82;55.97
12203;BME280;6164;42.178;24.622;2023-05-10T11:15:31;100152.75;;;18.92;56.70
12203;BME280;6164;42.178;24.622;2023-05-10T11:17:58;100140.78;;;18.95;55.69
12203;BME280;6164;42.178;24.622;2023-05-10T11:20:29;100169.81;;;19.11;54.58
12203;BME280;6164;42.178;24.622;2023-05-10T11:23:12;100182.13;;;19.31;53.30
12203;BME280;6164;42.178;24.622;2023-05-10T11:25:42;100174.72;;;19.33;53.45
12203;BME280;6164;42.178;24.622;2023-05-10T11:28:10;100186.84;;;19.36;53.12
12203;BME280;6164;42.178;24.622;2023-05-10T11:30:38;100182.09;;;19.44;52.92
12203;BME280;6164;42.178;24.622;2023-05-10T11:33:05;100178.75;;;19.55;52.35
12203;BME280;6164;42.178;24.622;2023-05-10T11:35:37;100181.72;;;19.79;52.56
12203;BME280;6164;42.178;24.622;2023-05-10T11:38:06;100218.31;;;20.04;49.89
12203;BME280;6164;42.178;24.622;2023-05-10T11:40:33;100216.09;;;20.39;50.03
12203;BME280;6164;42.178;24.622;2023-05-10T11:43:00;100216.25;;;20.44;50.45
12203;BME280;6164;42.178;24.622;2023-05-10T11:45:27;100224.97;;;20.39;49.37
12203;BME280;6164;42.178;24.622;2023-05-10T11:47:54;100221.97;;;20.54;49.25
12203;BME280;6164;42.178;24.622;2023-05-10T11:50:21;100196.72;;;20.61;50.42
12203;BME280;6164;42.178;24.622;2023-05-10T11:52:51;100178.81;;;20.31;51.34
12203;BME280;6164;42.178;24.622;2023-05-10T11:55:18;100210.66;;;20.08;49.46
12203;BME280;6164;42.178;24.622;2023-05-10T11:57:45;100178.88;;;19.80;51.54
12203;BME280;6164;42.178;24.622;2023-05-10T12:00:13;100179.31;;;19.71;50.81
12203;BME280;6164;42.178;24.622;2023-05-10T12:02:40;100172.63;;;19.93;52.09
12203;BME280;6164;42.178;24.622;2023-05-10T12:05:08;100175.03;;;20.01;50.85
12203;BME280;6164;42.178;24.622;2023-05-10T12:07:35;100188.34;;;20.20;50.50
12203;BME280;6164;42.178;24.622;2023-05-10T12:10:07;100189.66;;;20.42;49.98
12203;BME280;6164;42.178;24.622;2023-05-10T12:12:38;100213.28;;;20.27;48.46
12203;BME280;6164;42.178;24.622;2023-05-10T12:15:10;100204.34;;;20.33;49.25
12203;BME280;6164;42.178;24.622;2023-05-10T12:17:38;100227.91;;;20.62;47.17
12203;BME280;6164;42.178;24.622;2023-05-10T12:20:16;100198.78;;;20.59;48.18
12203;BME280;6164;42.178;24.622;2023-05-10T12:22:48;100237.09;;;20.42;47.37
12203;BME280;6164;42.178;24.622;2023-05-10T12:25:17;100218.03;;;20.25;48.65
12203;BME280;6164;42.178;24.622;2023-05-10T12:27:54;100210.19;;;20.24;48.97
12203;BME280;6164;42.178;24.622;2023-05-10T12:30:22;100196.22;;;20.09;48.49
12203;BME280;6164;42.178;24.622;2023-05-10T12:32:50;100187.34;;;20.08;48.69
12203;BME280;6164;42.178;24.622;2023-05-10T12:35:18;100190.25;;;20.07;48.18
12203;BME280;6164;42.178;24.622;2023-05-10T12:37:47;100190.47;;;20.05;48.35
12203;BME280;6164;42.178;24.622;2023-05-10T12:40:14;100164.78;;;19.91;48.84
12203;BME280;6164;42.178;24.622;2023-05-10T12:42:43;100167.00;;;19.56;48.59
12203;BME280;6164;42.178;24.622;2023-05-10T12:45:11;100151.00;;;19.43;48.67
12203;BME280;6164;42.178;24.622;2023-05-10T12:47:38;100155.66;;;19.61;48.98
12203;BME280;6164;42.178;24.622;2023-05-10T12:50:05;100158.69;;;19.71;48.11
12203;BME280;6164;42.178;24.622;2023-05-10T12:52:32;100128.97;;;19.79;49.60
12203;BME280;6164;42.178;24.622;2023-05-10T12:54:59;100122.00;;;19.78;50.13